sensor_id;sensor_type;location;lat;lon;timestamp;P1;durP1;ratioP1;P2;durP2;ratioP2
59930;SDS011;45790;51.538;6.736;2023-07-31T00:00:50;3.30;;;1.33;;
59930;SDS011;45790;51.538;6.736;2023-07-31T00:03:16;4.30;;;2.17;;
59930;SDS011;45790;51.538;6.736;2023-07-31T00:05:41;4.80;;;1.90;;
59930;SDS011;45790;51.538;6.736;2023-07-31T00:08:06;9.02;;;2.50;;
59930;SDS011;45790;51.538;6.736;2023-07-31T00:10:31;7.97;;;2.77;;
59930;SDS011;45790;51.538;6.736;2023-07-31T00:12:56;7.88;;;2.65;;
59930;SDS011;45790;51.538;6.736;2023-07-31T00:15:22;5.95;;;3.03;;
59930;SDS011;45790;51.538;6.736;2023-07-31T00:17:47;7.07;;;2.77;;
59930;SDS011;45790;51.538;6.736;2023-07-31T00:20:12;8.23;;;3.03;;
59930;SDS011;45790;51.538;6.736;2023-07-31T00:22:38;5.95;;;2.60;;
59930;SDS011;45790;51.538;6.736;2023-07-31T00:25:03;6.63;;;2.80;;
59930;SDS011;45790;51.538;6.736;2023-07-31T00:27:29;8.02;;;2.92;;
59930;SDS011;45790;51.538;6.736;2023-07-31T00:29:54;8.53;;;3.30;;
59930;SDS011;45790;51.538;6.736;2023-07-31T00:32:19;6.07;;;2.90;;
59930;SDS011;45790;51.538;6.736;2023-07-31T00:34:44;7.65;;;2.80;;
59930;SDS011;45790;51.538;6.736;2023-07-31T00:37:09;11.17;;;3.50;;
59930;SDS011;45790;51.538;6.736;2023-07-31T00:39:35;8.65;;;3.53;;
59930;SDS011;45790;51.538;6.736;2023-07-31T00:42:00;9.93;;;3.65;;
59930;SDS011;45790;51.538;6.736;2023-07-31T00:44:26;9.40;;;3.65;;
59930;SDS011;45790;51.538;6.736;2023-07-31T00:46:51;13.30;;;3.38;;
59930;SDS011;45790;51.538;6.736;2023-07-31T00:49:17;11.27;;;3.90;;
59930;SDS011;45790;51.538;6.736;2023-07-31T00:51:42;12.35;;;3.80;;
59930;SDS011;45790;51.538;6.736;2023-07-31T00:54:07;12.27;;;4.30;;
59930;SDS011;45790;51.538;6.736;2023-07-31T00:56:33;9.15;;;3.78;;
59930;SDS011;45790;51.538;6.736;2023-07-31T00:58:58;7.60;;;3.83;;
59930;SDS011;45790;51.538;6.736;2023-07-31T01:01:23;10.38;;;3.72;;
59930;SDS011;45790;51.538;6.736;2023-07-31T01:03:49;10.80;;;3.47;;
59930;SDS011;45790;51.538;6.736;2023-07-31T01:06:20;9.85;;;3.67;;
59930;SDS011;45790;51.538;6.736;2023-07-31T01:13:38;8.17;;;3.47;;
59930;SDS011;45790;51.538;6.736;2023-07-31T01:16:04;13.70;;;3.53;;
59930;SDS011;45790;51.538;6.736;2023-07-31T01:18:29;9.40;;;3.63;;
59930;SDS011;45790;51.538;6.736;2023-07-31T01:20:57;9.30;;;3.63;;
59930;SDS011;45790;51.538;6.736;2023-07-31T01:23:32;8.35;;;3.42;;
59930;SDS011;45790;51.538;6.736;2023-07-31T01:28:32;9.70;;;3.55;;
59930;SDS011;45790;51.538;6.736;2023-07-31T01:31:00;8.98;;;3.35;;
59930;SDS011;45790;51.538;6.736;2023-07-31T01:33:26;10.07;;;3.60;;
59930;SDS011;45790;51.538;6.736;2023-07-31T01:35:52;8.98;;;3.42;;
59930;SDS011;45790;51.538;6.736;2023-07-31T01:38:20;10.80;;;3.38;;
59930;SDS011;45790;51.538;6.736;2023-07-31T01:40:45;9.57;;;3.63;;
59930;SDS011;45790;51.538;6.736;2023-07-31T01:43:15;14.07;;;3.50;;
59930;SDS011;45790;51.538;6.736;2023-07-31T01:45:41;9.93;;;3.28;;
59930;SDS011;45790;51.538;6.736;2023-07-31T01:48:06;12.90;;;3.27;;
59930;SDS011;45790;51.538;6.736;2023-07-31T01:50:31;11.80;;;3.63;;
59930;SDS011;45790;51.538;6.736;2023-07-31T01:52:56;8.33;;;3.20;;
59930;SDS011;45790;51.538;6.736;2023-07-31T01:55:21;8.73;;;3.17;;
59930;SDS011;45790;51.538;6.736;2023-07-31T01:57:47;14.57;;;3.63;;
59930;SDS011;45790;51.538;6.736;2023-07-31T02:00:13;8.70;;;3.30;;
59930;SDS011;45790;51.538;6.736;2023-07-31T02:02:38;12.63;;;3.20;;
59930;SDS011;45790;51.538;6.736;2023-07-31T02:05:04;13.15;;;3.80;;
59930;SDS011;45790;51.538;6.736;2023-07-31T02:07:29;9.02;;;3.33;;
59930;SDS011;45790;51.538;6.736;2023-07-31T02:09:54;11.47;;;3.60;;
59930;SDS011;45790;51.538;6.736;2023-07-31T02:12:19;13.90;;;3.25;;
59930;SDS011;45790;51.538;6.736;2023-07-31T02:14:45;12.07;;;3.50;;
59930;SDS011;45790;51.538;6.736;2023-07-31T02:17:10;8.33;;;3.50;;
59930;SDS011;45790;51.538;6.736;2023-07-31T02:19:35;11.63;;;3.45;;
59930;SDS011;45790;51.538;6.736;2023-07-31T02:22:00;10.15;;;3.65;;
59930;SDS011;45790;51.538;6.736;2023-07-31T02:24:25;11.83;;;3.73;;
59930;SDS011;45790;51.538;6.736;2023-07-31T02:26:51;12.07;;;3.80;;
59930;SDS011;45790;51.538;6.736;2023-07-31T02:29:16;9.18;;;3.30;;
59930;SDS011;45790;51.538;6.736;2023-07-31T02:31:41;9.37;;;3.70;;
59930;SDS011;45790;51.538;6.736;2023-07-31T02:34:06;10.60;;;3.83;;
59930;SDS011;45790;51.538;6.736;2023-07-31T02:36:32;11.80;;;3.47;;
59930;SDS011;45790;51.538;6.736;2023-07-31T02:38:57;13.30;;;3.90;;
59930;SDS011;45790;51.538;6.736;2023-07-31T02:41:22;11.37;;;3.77;;
59930;SDS011;45790;51.538;6.736;2023-07-31T02:43:47;12.50;;;3.85;;
59930;SDS011;45790;51.538;6.736;2023-07-31T02:46:12;13.40;;;3.60;;
59930;SDS011;45790;51.538;6.736;2023-07-31T02:48:38;12.13;;;3.37;;
59930;SDS011;45790;51.538;6.736;2023-07-31T02:51:03;11.45;;;3.70;;
59930;SDS011;45790;51.538;6.736;2023-07-31T02:53:28;9.73;;;3.50;;
59930;SDS011;45790;51.538;6.736;2023-07-31T02:55:53;9.80;;;3.55;;
59930;SDS011;45790;51.538;6.736;2023-07-31T02:58:18;10.40;;;3.70;;
59930;SDS011;45790;51.538;6.736;2023-07-31T03:00:44;10.32;;;3.80;;
59930;SDS011;45790;51.538;6.736;2023-07-31T03:03:09;11.93;;;3.80;;
59930;SDS011;45790;51.538;6.736;2023-07-31T03:05:34;11.13;;;3.87;;
59930;SDS011;45790;51.538;6.736;2023-07-31T03:08:00;10.43;;;3.63;;
59930;SDS011;45790;51.538;6.736;2023-07-31T03:10:26;12.50;;;3.90;;
59930;SDS011;45790;51.538;6.736;2023-07-31T03:12:51;12.27;;;4.10;;
59930;SDS011;45790;51.538;6.736;2023-07-31T03:15:17;9.85;;;3.50;;
59930;SDS011;45790;51.538;6.736;2023-07-31T03:17:42;13.25;;;3.90;;
59930;SDS011;45790;51.538;6.736;2023-07-31T03:20:07;13.40;;;3.90;;
59930;SDS011;45790;51.538;6.736;2023-07-31T03:22:33;12.32;;;3.78;;
59930;SDS011;45790;51.538;6.736;2023-07-31T03:25:00;12.77;;;3.63;;
59930;SDS011;45790;51.538;6.736;2023-07-31T03:27:25;13.25;;;3.67;;
59930;SDS011;45790;51.538;6.736;2023-07-31T03:29:50;10.93;;;3.70;;
59930;SDS011;45790;51.538;6.736;2023-07-31T03:32:16;11.02;;;4.18;;
59930;SDS011;45790;51.538;6.736;2023-07-31T03:34:42;10.00;;;3.70;;
59930;SDS011;45790;51.538;6.736;2023-07-31T03:37:07;9.83;;;3.70;;
59930;SDS011;45790;51.538;6.736;2023-07-31T03:39:34;13.45;;;3.90;;
59930;SDS011;45790;51.538;6.736;2023-07-31T03:41:59;17.38;;;3.95;;
59930;SDS011;45790;51.538;6.736;2023-07-31T03:44:24;11.20;;;3.83;;
59930;SDS011;45790;51.538;6.736;2023-07-31T03:46:49;9.83;;;3.57;;
59930;SDS011;45790;51.538;6.736;2023-07-31T03:49:15;9.48;;;3.65;;
59930;SDS011;45790;51.538;6.736;2023-07-31T03:51:40;13.90;;;3.55;;
59930;SDS011;45790;51.538;6.736;2023-07-31T03:54:06;12.38;;;3.88;;
59930;SDS011;45790;51.538;6.736;2023-07-31T03:56:32;12.55;;;4.05;;
59930;SDS011;45790;51.538;6.736;2023-07-31T03:58:58;12.00;;;3.92;;
59930;SDS011;45790;51.538;6.736;2023-07-31T04:01:23;14.83;;;4.20;;
59930;SDS011;45790;51.538;6.736;2023-07-31T04:03:48;11.02;;;3.63;;
59930;SDS011;45790;51.538;6.736;2023-07-31T04:06:13;7.87;;;3.73;;
59930;SDS011;45790;51.538;6.736;2023-07-31T04:08:42;8.18;;;3.25;;
59930;SDS011;45790;51.538;6.736;2023-07-31T04:11:08;13.17;;;4.00;;
59930;SDS011;45790;51.538;6.736;2023-07-31T04:13:33;10.27;;;3.70;;
59930;SDS011;45790;51.538;6.736;2023-07-31T04:15:58;12.90;;;4.03;;
59930;SDS011;45790;51.538;6.736;2023-07-31T04:18:24;10.38;;;3.53;;
59930;SDS011;45790;51.538;6.736;2023-07-31T04:20:49;11.35;;;4.00;;
59930;SDS011;45790;51.538;6.736;2023-07-31T04:23:15;11.80;;;3.80;;
59930;SDS011;45790;51.538;6.736;2023-07-31T04:25:40;12.40;;;4.00;;
59930;SDS011;45790;51.538;6.736;2023-07-31T04:28:05;9.88;;;3.72;;
59930;SDS011;45790;51.538;6.736;2023-07-31T04:30:30;11.20;;;3.15;;
59930;SDS011;45790;51.538;6.736;2023-07-31T04:32:56;12.52;;;3.90;;
59930;SDS011;45790;51.538;6.736;2023-07-31T04:35:21;11.05;;;4.03;;
59930;SDS011;45790;51.538;6.736;2023-07-31T04:37:46;12.38;;;3.90;;
59930;SDS011;45790;51.538;6.736;2023-07-31T04:40:14;12.65;;;4.05;;
59930;SDS011;45790;51.538;6.736;2023-07-31T04:42:39;13.05;;;3.70;;
59930;SDS011;45790;51.538;6.736;2023-07-31T04:45:04;10.95;;;3.65;;
59930;SDS011;45790;51.538;6.736;2023-07-31T04:47:30;10.90;;;3.95;;
59930;SDS011;45790;51.538;6.736;2023-07-31T04:49:55;8.57;;;3.63;;
59930;SDS011;45790;51.538;6.736;2023-07-31T04:52:21;10.18;;;3.95;;
59930;SDS011;45790;51.538;6.736;2023-07-31T04:54:46;9.17;;;3.60;;
59930;SDS011;45790;51.538;6.736;2023-07-31T04:57:11;18.05;;;3.95;;
59930;SDS011;45790;51.538;6.736;2023-07-31T04:59:36;13.55;;;3.95;;
59930;SDS011;45790;51.538;6.736;2023-07-31T05:02:02;10.60;;;3.90;;
59930;SDS011;45790;51.538;6.736;2023-07-31T05:04:27;8.32;;;3.85;;
59930;SDS011;45790;51.538;6.736;2023-07-31T05:06:52;13.38;;;3.33;;
59930;SDS011;45790;51.538;6.736;2023-07-31T05:09:18;12.02;;;3.80;;
59930;SDS011;45790;51.538;6.736;2023-07-31T05:11:44;12.15;;;3.85;;
59930;SDS011;45790;51.538;6.736;2023-07-31T05:14:09;12.32;;;3.83;;
59930;SDS011;45790;51.538;6.736;2023-07-31T05:16:34;12.45;;;3.90;;
59930;SDS011;45790;51.538;6.736;2023-07-31T05:18:59;12.88;;;3.60;;
59930;SDS011;45790;51.538;6.736;2023-07-31T05:21:24;8.40;;;3.50;;
59930;SDS011;45790;51.538;6.736;2023-07-31T05:23:50;8.48;;;3.33;;
59930;SDS011;45790;51.538;6.736;2023-07-31T05:26:15;9.17;;;3.17;;
59930;SDS011;45790;51.538;6.736;2023-07-31T05:28:40;9.65;;;3.90;;
59930;SDS011;45790;51.538;6.736;2023-07-31T05:31:05;9.43;;;3.88;;
59930;SDS011;45790;51.538;6.736;2023-07-31T05:33:31;12.25;;;3.90;;
59930;SDS011;45790;51.538;6.736;2023-07-31T05:35:57;9.75;;;3.72;;
59930;SDS011;45790;51.538;6.736;2023-07-31T05:38:22;11.10;;;3.45;;
59930;SDS011;45790;51.538;6.736;2023-07-31T05:40:47;9.68;;;3.83;;
59930;SDS011;45790;51.538;6.736;2023-07-31T05:43:13;9.00;;;3.42;;
59930;SDS011;45790;51.538;6.736;2023-07-31T05:45:38;10.55;;;3.70;;
59930;SDS011;45790;51.538;6.736;2023-07-31T05:48:05;11.55;;;3.90;;
59930;SDS011;45790;51.538;6.736;2023-07-31T05:50:30;12.95;;;3.65;;
59930;SDS011;45790;51.538;6.736;2023-07-31T05:52:55;9.02;;;3.63;;
59930;SDS011;45790;51.538;6.736;2023-07-31T05:55:20;13.02;;;4.07;;
59930;SDS011;45790;51.538;6.736;2023-07-31T05:57:46;11.65;;;4.15;;
59930;SDS011;45790;51.538;6.736;2023-07-31T06:00:11;10.40;;;3.80;;
59930;SDS011;45790;51.538;6.736;2023-07-31T06:02:37;9.60;;;3.38;;
59930;SDS011;45790;51.538;6.736;2023-07-31T06:05:02;8.60;;;3.30;;
59930;SDS011;45790;51.538;6.736;2023-07-31T06:07:28;8.20;;;3.80;;
59930;SDS011;45790;51.538;6.736;2023-07-31T06:09:54;10.93;;;3.75;;
59930;SDS011;45790;51.538;6.736;2023-07-31T06:12:20;8.15;;;3.63;;
59930;SDS011;45790;51.538;6.736;2023-07-31T06:14:45;8.32;;;3.58;;
59930;SDS011;45790;51.538;6.736;2023-07-31T06:17:10;10.77;;;3.73;;
59930;SDS011;45790;51.538;6.736;2023-07-31T06:19:36;10.27;;;3.70;;
59930;SDS011;45790;51.538;6.736;2023-07-31T06:22:01;11.50;;;3.92;;
59930;SDS011;45790;51.538;6.736;2023-07-31T06:24:27;10.07;;;3.47;;
59930;SDS011;45790;51.538;6.736;2023-07-31T06:26:52;10.77;;;3.78;;
59930;SDS011;45790;51.538;6.736;2023-07-31T06:29:18;8.15;;;3.50;;
59930;SDS011;45790;51.538;6.736;2023-07-31T06:31:43;10.77;;;3.97;;
59930;SDS011;45790;51.538;6.736;2023-07-31T06:34:08;8.18;;;3.85;;
59930;SDS011;45790;51.538;6.736;2023-07-31T06:36:33;7.23;;;3.90;;
59930;SDS011;45790;51.538;6.736;2023-07-31T06:38:58;9.27;;;3.97;;
59930;SDS011;45790;51.538;6.736;2023-07-31T06:41:24;6.80;;;3.53;;
59930;SDS011;45790;51.538;6.736;2023-07-31T06:43:49;7.03;;;3.63;;
59930;SDS011;45790;51.538;6.736;2023-07-31T06:46:14;13.30;;;3.70;;
59930;SDS011;45790;51.538;6.736;2023-07-31T06:48:39;13.27;;;3.70;;
59930;SDS011;45790;51.538;6.736;2023-07-31T06:51:04;8.93;;;3.47;;
59930;SDS011;45790;51.538;6.736;2023-07-31T06:53:30;7.35;;;3.38;;
59930;SDS011;45790;51.538;6.736;2023-07-31T06:55:55;8.27;;;3.13;;
59930;SDS011;45790;51.538;6.736;2023-07-31T06:58:20;10.60;;;3.40;;
59930;SDS011;45790;51.538;6.736;2023-07-31T07:00:45;6.28;;;3.00;;
59930;SDS011;45790;51.538;6.736;2023-07-31T07:03:10;6.43;;;3.40;;
59930;SDS011;45790;51.538;6.736;2023-07-31T07:05:36;7.47;;;3.40;;
59930;SDS011;45790;51.538;6.736;2023-07-31T07:08:01;9.27;;;3.60;;
59930;SDS011;45790;51.538;6.736;2023-07-31T07:10:26;9.05;;;3.58;;
59930;SDS011;45790;51.538;6.736;2023-07-31T07:12:52;9.27;;;3.38;;
59930;SDS011;45790;51.538;6.736;2023-07-31T07:15:17;5.55;;;3.10;;
59930;SDS011;45790;51.538;6.736;2023-07-31T07:17:42;7.37;;;3.37;;
59930;SDS011;45790;51.538;6.736;2023-07-31T07:20:08;10.13;;;3.10;;
59930;SDS011;45790;51.538;6.736;2023-07-31T07:22:33;6.78;;;3.40;;
59930;SDS011;45790;51.538;6.736;2023-07-31T07:24:58;8.50;;;3.57;;
59930;SDS011;45790;51.538;6.736;2023-07-31T07:27:23;8.35;;;3.40;;
59930;SDS011;45790;51.538;6.736;2023-07-31T07:29:51;7.10;;;2.97;;
59930;SDS011;45790;51.538;6.736;2023-07-31T07:32:20;6.47;;;2.70;;
59930;SDS011;45790;51.538;6.736;2023-07-31T07:34:46;6.32;;;2.45;;
59930;SDS011;45790;51.538;6.736;2023-07-31T07:37:12;6.68;;;3.08;;
59930;SDS011;45790;51.538;6.736;2023-07-31T07:39:37;6.43;;;3.10;;
59930;SDS011;45790;51.538;6.736;2023-07-31T07:42:02;8.53;;;3.17;;
59930;SDS011;45790;51.538;6.736;2023-07-31T07:44:28;8.07;;;3.03;;
59930;SDS011;45790;51.538;6.736;2023-07-31T07:46:53;7.68;;;3.10;;
59930;SDS011;45790;51.538;6.736;2023-07-31T07:49:18;5.37;;;2.77;;
59930;SDS011;45790;51.538;6.736;2023-07-31T07:51:44;7.77;;;2.63;;
59930;SDS011;45790;51.538;6.736;2023-07-31T07:54:09;8.23;;;2.33;;
59930;SDS011;45790;51.538;6.736;2023-07-31T07:56:34;6.53;;;2.10;;
59930;SDS011;45790;51.538;6.736;2023-07-31T07:59:01;8.90;;;2.50;;
59930;SDS011;45790;51.538;6.736;2023-07-31T08:01:26;5.07;;;2.55;;
59930;SDS011;45790;51.538;6.736;2023-07-31T08:03:51;5.17;;;2.40;;
59930;SDS011;45790;51.538;6.736;2023-07-31T08:06:17;4.63;;;1.73;;
59930;SDS011;45790;51.538;6.736;2023-07-31T08:08:42;3.67;;;1.73;;
59930;SDS011;45790;51.538;6.736;2023-07-31T08:11:07;7.13;;;2.13;;
59930;SDS011;45790;51.538;6.736;2023-07-31T08:13:32;4.80;;;2.20;;
59930;SDS011;45790;51.538;6.736;2023-07-31T08:15:58;4.88;;;1.95;;
59930;SDS011;45790;51.538;6.736;2023-07-31T08:18:23;4.57;;;2.13;;
59930;SDS011;45790;51.538;6.736;2023-07-31T08:20:48;4.68;;;1.98;;
59930;SDS011;45790;51.538;6.736;2023-07-31T08:23:14;3.58;;;1.67;;
59930;SDS011;45790;51.538;6.736;2023-07-31T08:25:39;5.37;;;1.97;;
59930;SDS011;45790;51.538;6.736;2023-07-31T08:28:04;3.42;;;1.73;;
59930;SDS011;45790;51.538;6.736;2023-07-31T08:30:30;6.80;;;2.17;;
59930;SDS011;45790;51.538;6.736;2023-07-31T08:32:55;7.72;;;2.10;;
59930;SDS011;45790;51.538;6.736;2023-07-31T08:35:21;4.85;;;1.90;;
59930;SDS011;45790;51.538;6.736;2023-07-31T08:37:46;7.38;;;2.38;;
59930;SDS011;45790;51.538;6.736;2023-07-31T08:40:11;3.10;;;1.60;;
59930;SDS011;45790;51.538;6.736;2023-07-31T08:42:49;4.88;;;2.08;;
59930;SDS011;45790;51.538;6.736;2023-07-31T08:45:16;5.03;;;2.03;;
59930;SDS011;45790;51.538;6.736;2023-07-31T08:47:45;3.63;;;1.67;;
59930;SDS011;45790;51.538;6.736;2023-07-31T08:50:14;3.47;;;1.98;;
59930;SDS011;45790;51.538;6.736;2023-07-31T08:52:40;4.43;;;1.75;;
59930;SDS011;45790;51.538;6.736;2023-07-31T08:55:05;3.97;;;2.05;;
59930;SDS011;45790;51.538;6.736;2023-07-31T08:57:31;4.00;;;1.77;;
59930;SDS011;45790;51.538;6.736;2023-07-31T08:59:56;4.03;;;2.03;;
59930;SDS011;45790;51.538;6.736;2023-07-31T09:02:22;5.70;;;2.10;;
59930;SDS011;45790;51.538;6.736;2023-07-31T09:04:48;7.78;;;2.20;;
59930;SDS011;45790;51.538;6.736;2023-07-31T09:07:13;5.70;;;2.28;;
59930;SDS011;45790;51.538;6.736;2023-07-31T09:09:40;3.65;;;2.00;;
59930;SDS011;45790;51.538;6.736;2023-07-31T09:12:05;4.70;;;2.20;;
59930;SDS011;45790;51.538;6.736;2023-07-31T09:14:31;4.80;;;2.03;;
59930;SDS011;45790;51.538;6.736;2023-07-31T09:16:58;5.38;;;2.13;;
59930;SDS011;45790;51.538;6.736;2023-07-31T09:19:29;4.20;;;2.20;;
59930;SDS011;45790;51.538;6.736;2023-07-31T09:21:54;3.90;;;2.15;;
59930;SDS011;45790;51.538;6.736;2023-07-31T09:24:26;5.32;;;2.10;;
59930;SDS011;45790;51.538;6.736;2023-07-31T09:26:53;4.78;;;2.42;;
59930;SDS011;45790;51.538;6.736;2023-07-31T09:29:19;6.07;;;2.40;;
59930;SDS011;45790;51.538;6.736;2023-07-31T09:31:45;7.85;;;2.17;;
59930;SDS011;45790;51.538;6.736;2023-07-31T09:34:10;5.18;;;2.10;;
59930;SDS011;45790;51.538;6.736;2023-07-31T09:36:48;6.25;;;2.08;;
59930;SDS011;45790;51.538;6.736;2023-07-31T09:39:14;5.75;;;2.13;;
59930;SDS011;45790;51.538;6.736;2023-07-31T09:41:44;4.80;;;2.20;;
59930;SDS011;45790;51.538;6.736;2023-07-31T09:44:09;4.82;;;2.33;;
59930;SDS011;45790;51.538;6.736;2023-07-31T09:46:35;5.68;;;2.38;;
59930;SDS011;45790;51.538;6.736;2023-07-31T09:49:12;8.13;;;2.38;;
59930;SDS011;45790;51.538;6.736;2023-07-31T09:51:38;4.90;;;2.28;;
59930;SDS011;45790;51.538;6.736;2023-07-31T09:54:24;3.97;;;1.90;;
59930;SDS011;45790;51.538;6.736;2023-07-31T09:56:49;4.25;;;1.98;;
59930;SDS011;45790;51.538;6.736;2023-07-31T09:59:15;7.43;;;2.30;;
59930;SDS011;45790;51.538;6.736;2023-07-31T10:01:41;4.13;;;1.88;;
59930;SDS011;45790;51.538;6.736;2023-07-31T10:04:10;5.45;;;2.13;;
59930;SDS011;45790;51.538;6.736;2023-07-31T10:06:36;4.57;;;2.00;;
59930;SDS011;45790;51.538;6.736;2023-07-31T10:09:02;3.97;;;2.05;;
59930;SDS011;45790;51.538;6.736;2023-07-31T10:11:28;6.13;;;1.90;;
59930;SDS011;45790;51.538;6.736;2023-07-31T10:13:55;5.72;;;2.00;;
59930;SDS011;45790;51.538;6.736;2023-07-31T10:16:20;3.15;;;1.70;;
59930;SDS011;45790;51.538;6.736;2023-07-31T10:18:46;3.67;;;2.00;;
59930;SDS011;45790;51.538;6.736;2023-07-31T10:21:11;4.47;;;1.90;;
59930;SDS011;45790;51.538;6.736;2023-07-31T10:23:37;5.55;;;1.95;;
59930;SDS011;45790;51.538;6.736;2023-07-31T10:26:04;4.85;;;2.10;;
59930;SDS011;45790;51.538;6.736;2023-07-31T10:28:31;4.50;;;2.30;;
59930;SDS011;45790;51.538;6.736;2023-07-31T10:30:57;5.20;;;2.58;;
59930;SDS011;45790;51.538;6.736;2023-07-31T10:33:22;7.18;;;2.45;;
59930;SDS011;45790;51.538;6.736;2023-07-31T10:35:48;6.05;;;2.40;;
59930;SDS011;45790;51.538;6.736;2023-07-31T10:38:18;4.30;;;2.20;;
59930;SDS011;45790;51.538;6.736;2023-07-31T10:40:43;5.10;;;2.35;;
59930;SDS011;45790;51.538;6.736;2023-07-31T10:43:10;4.45;;;2.42;;
59930;SDS011;45790;51.538;6.736;2023-07-31T10:45:48;5.68;;;2.70;;
59930;SDS011;45790;51.538;6.736;2023-07-31T10:48:14;10.95;;;2.35;;
59930;SDS011;45790;51.538;6.736;2023-07-31T10:55:48;6.63;;;2.80;;
59930;SDS011;45790;51.538;6.736;2023-07-31T10:58:16;4.25;;;2.60;;
59930;SDS011;45790;51.538;6.736;2023-07-31T11:00:43;5.32;;;2.58;;
59930;SDS011;45790;51.538;6.736;2023-07-31T11:05:48;4.78;;;2.58;;
59930;SDS011;45790;51.538;6.736;2023-07-31T11:08:21;4.93;;;2.30;;
59930;SDS011;45790;51.538;6.736;2023-07-31T11:10:48;6.50;;;2.33;;
59930;SDS011;45790;51.538;6.736;2023-07-31T11:13:14;7.25;;;2.45;;
59930;SDS011;45790;51.538;6.736;2023-07-31T11:15:39;5.57;;;2.50;;
59930;SDS011;45790;51.538;6.736;2023-07-31T11:18:05;6.70;;;2.58;;
59930;SDS011;45790;51.538;6.736;2023-07-31T11:20:34;7.65;;;2.22;;
59930;SDS011;45790;51.538;6.736;2023-07-31T11:23:03;4.40;;;2.22;;
59930;SDS011;45790;51.538;6.736;2023-07-31T11:25:29;5.55;;;2.20;;
59930;SDS011;45790;51.538;6.736;2023-07-31T11:27:55;5.35;;;2.20;;
59930;SDS011;45790;51.538;6.736;2023-07-31T11:30:21;8.30;;;2.22;;
59930;SDS011;45790;51.538;6.736;2023-07-31T11:32:46;5.70;;;2.22;;
59930;SDS011;45790;51.538;6.736;2023-07-31T11:35:14;7.00;;;2.10;;
59930;SDS011;45790;51.538;6.736;2023-07-31T11:37:43;3.38;;;1.90;;
59930;SDS011;45790;51.538;6.736;2023-07-31T11:40:09;3.80;;;2.03;;
59930;SDS011;45790;51.538;6.736;2023-07-31T11:42:34;4.97;;;2.25;;
59930;SDS011;45790;51.538;6.736;2023-07-31T11:45:01;5.68;;;1.88;;
59930;SDS011;45790;51.538;6.736;2023-07-31T11:47:27;4.25;;;2.30;;
59930;SDS011;45790;51.538;6.736;2023-07-31T11:49:52;4.25;;;1.88;;
59930;SDS011;45790;51.538;6.736;2023-07-31T11:52:18;3.88;;;1.67;;
59930;SDS011;45790;51.538;6.736;2023-07-31T11:54:45;3.83;;;2.28;;
59930;SDS011;45790;51.538;6.736;2023-07-31T11:57:10;5.07;;;2.28;;
59930;SDS011;45790;51.538;6.736;2023-07-31T11:59:37;6.82;;;1.95;;
59930;SDS011;45790;51.538;6.736;2023-07-31T12:02:02;4.05;;;2.15;;
59930;SDS011;45790;51.538;6.736;2023-07-31T12:04:28;3.55;;;1.75;;
59930;SDS011;45790;51.538;6.736;2023-07-31T12:06:54;4.75;;;2.22;;
59930;SDS011;45790;51.538;6.736;2023-07-31T12:09:19;4.13;;;2.17;;
59930;SDS011;45790;51.538;6.736;2023-07-31T12:11:45;3.95;;;2.03;;
59930;SDS011;45790;51.538;6.736;2023-07-31T12:14:24;4.10;;;2.10;;
59930;SDS011;45790;51.538;6.736;2023-07-31T12:17:00;4.50;;;2.22;;
59930;SDS011;45790;51.538;6.736;2023-07-31T12:19:25;5.22;;;1.98;;
59930;SDS011;45790;51.538;6.736;2023-07-31T12:21:54;5.13;;;2.20;;
59930;SDS011;45790;51.538;6.736;2023-07-31T12:24:20;4.20;;;2.22;;
59930;SDS011;45790;51.538;6.736;2023-07-31T12:26:45;3.70;;;2.05;;
59930;SDS011;45790;51.538;6.736;2023-07-31T12:29:11;4.45;;;1.88;;
59930;SDS011;45790;51.538;6.736;2023-07-31T12:31:37;4.70;;;2.20;;
59930;SDS011;45790;51.538;6.736;2023-07-31T12:34:02;3.33;;;1.98;;
59930;SDS011;45790;51.538;6.736;2023-07-31T12:36:27;6.32;;;2.10;;
59930;SDS011;45790;51.538;6.736;2023-07-31T12:38:55;3.88;;;2.08;;
59930;SDS011;45790;51.538;6.736;2023-07-31T12:41:23;3.80;;;1.80;;
59930;SDS011;45790;51.538;6.736;2023-07-31T12:43:49;3.28;;;1.80;;
59930;SDS011;45790;51.538;6.736;2023-07-31T12:46:14;6.00;;;2.00;;
59930;SDS011;45790;51.538;6.736;2023-07-31T12:48:39;4.95;;;2.22;;
59930;SDS011;45790;51.538;6.736;2023-07-31T12:51:05;4.10;;;2.10;;
59930;SDS011;45790;51.538;6.736;2023-07-31T12:53:34;5.35;;;2.20;;
59930;SDS011;45790;51.538;6.736;2023-07-31T12:55:59;4.38;;;2.05;;
59930;SDS011;45790;51.538;6.736;2023-07-31T12:58:25;5.25;;;2.00;;
59930;SDS011;45790;51.538;6.736;2023-07-31T13:00:50;3.47;;;1.83;;
59930;SDS011;45790;51.538;6.736;2023-07-31T13:03:16;3.95;;;1.65;;
59930;SDS011;45790;51.538;6.736;2023-07-31T13:05:41;4.53;;;1.83;;
59930;SDS011;45790;51.538;6.736;2023-07-31T13:08:06;3.85;;;1.70;;
59930;SDS011;45790;51.538;6.736;2023-07-31T13:10:31;3.80;;;2.00;;
59930;SDS011;45790;51.538;6.736;2023-07-31T13:12:56;3.38;;;1.92;;
59930;SDS011;45790;51.538;6.736;2023-07-31T13:15:22;5.80;;;2.00;;
59930;SDS011;45790;51.538;6.736;2023-07-31T13:17:47;5.35;;;2.03;;
59930;SDS011;45790;51.538;6.736;2023-07-31T13:20:12;4.68;;;2.67;;
59930;SDS011;45790;51.538;6.736;2023-07-31T13:22:38;4.68;;;2.05;;
59930;SDS011;45790;51.538;6.736;2023-07-31T13:25:03;3.35;;;1.90;;
59930;SDS011;45790;51.538;6.736;2023-07-31T13:27:28;7.78;;;2.33;;
59930;SDS011;45790;51.538;6.736;2023-07-31T13:29:54;4.03;;;2.00;;
59930;SDS011;45790;51.538;6.736;2023-07-31T13:32:19;5.47;;;2.47;;
59930;SDS011;45790;51.538;6.736;2023-07-31T13:34:45;5.65;;;2.20;;
59930;SDS011;45790;51.538;6.736;2023-07-31T13:37:10;5.13;;;2.28;;
59930;SDS011;45790;51.538;6.736;2023-07-31T13:39:36;7.22;;;2.45;;
59930;SDS011;45790;51.538;6.736;2023-07-31T13:42:02;4.70;;;2.42;;
59930;SDS011;45790;51.538;6.736;2023-07-31T13:44:27;5.22;;;2.33;;
59930;SDS011;45790;51.538;6.736;2023-07-31T13:46:53;4.03;;;2.20;;
59930;SDS011;45790;51.538;6.736;2023-07-31T13:49:18;4.70;;;2.40;;
59930;SDS011;45790;51.538;6.736;2023-07-31T13:51:43;4.80;;;2.40;;
59930;SDS011;45790;51.538;6.736;2023-07-31T13:54:08;5.90;;;2.60;;
59930;SDS011;45790;51.538;6.736;2023-07-31T13:56:36;5.60;;;2.65;;
59930;SDS011;45790;51.538;6.736;2023-07-31T13:59:01;5.47;;;2.47;;
59930;SDS011;45790;51.538;6.736;2023-07-31T14:01:27;4.27;;;2.20;;
59930;SDS011;45790;51.538;6.736;2023-07-31T14:03:52;5.47;;;2.67;;
59930;SDS011;45790;51.538;6.736;2023-07-31T14:06:17;4.37;;;2.20;;
59930;SDS011;45790;51.538;6.736;2023-07-31T14:08:42;6.60;;;2.70;;
59930;SDS011;45790;51.538;6.736;2023-07-31T14:11:07;6.57;;;2.78;;
59930;SDS011;45790;51.538;6.736;2023-07-31T14:13:33;6.53;;;2.60;;
59930;SDS011;45790;51.538;6.736;2023-07-31T14:15:58;7.45;;;2.65;;
59930;SDS011;45790;51.538;6.736;2023-07-31T14:18:23;6.77;;;2.87;;
59930;SDS011;45790;51.538;6.736;2023-07-31T14:20:48;6.73;;;2.80;;
59930;SDS011;45790;51.538;6.736;2023-07-31T14:23:13;6.37;;;2.83;;
59930;SDS011;45790;51.538;6.736;2023-07-31T14:25:40;9.77;;;3.17;;
59930;SDS011;45790;51.538;6.736;2023-07-31T14:28:05;7.80;;;2.83;;
59930;SDS011;45790;51.538;6.736;2023-07-31T14:30:30;6.53;;;2.57;;
59930;SDS011;45790;51.538;6.736;2023-07-31T14:32:56;5.07;;;2.70;;
59930;SDS011;45790;51.538;6.736;2023-07-31T14:35:21;6.37;;;3.10;;
59930;SDS011;45790;51.538;6.736;2023-07-31T14:37:46;6.53;;;2.67;;
59930;SDS011;45790;51.538;6.736;2023-07-31T14:40:12;6.82;;;2.75;;
59930;SDS011;45790;51.538;6.736;2023-07-31T14:42:38;7.43;;;2.80;;
59930;SDS011;45790;51.538;6.736;2023-07-31T14:45:03;7.70;;;2.88;;
59930;SDS011;45790;51.538;6.736;2023-07-31T14:47:29;4.88;;;3.05;;
59930;SDS011;45790;51.538;6.736;2023-07-31T14:49:56;5.03;;;2.88;;